Himrod, New York
Current Conditions -  °F | °C
As of 9:53 PM on Saturday 22 Nov 2014 (Local Time) from KPEO Reporting Station
Overcast Overcast  
Wind Chill: 35°   Ceiling: 2700
Heat Index: 43°   Visibility: 10mi
Dew Point: 37°   Wind: 17mph
Humidity: 80%   Direction: 210°SSW
Pressure: 30.01"   Gusts: 23mph
Location:  42.59°N, 76.96°W
Report Text: KPEO 230253Z AUTO 21015G20KT 10SM OVC027 06/03 A3001 RMK AO2 RAE0155 SLP170 P0000 60000 T00610028 58001
Loading
Personal Weather Stations






























Interactive Weather Map New forecast layout! Learn more

10-Day Weather Forecast

Advertisements
Track Severe Weather on mobile